createdAt,value
2019-05-23T00:01:11.572Z,16.90
2019-05-23T00:04:07.805Z,16.90
2019-05-23T00:06:58.956Z,16.90
2019-05-23T00:09:50.888Z,16.80
2019-05-23T00:12:42.476Z,16.80
2019-05-23T00:15:38.294Z,16.80
2019-05-23T00:18:12.127Z,16.70
2019-05-23T00:20:45.891Z,16.70
2019-05-23T00:23:19.690Z,16.70
2019-05-23T00:25:54.159Z,16.70
2019-05-23T00:28:27.446Z,16.70
2019-05-23T00:31:04.911Z,16.70
2019-05-23T00:33:40.323Z,16.70
2019-05-23T00:36:14.122Z,16.70
2019-05-23T00:38:46.896Z,16.60
2019-05-23T00:41:19.306Z,16.60
2019-05-23T00:43:51.971Z,16.60
2019-05-23T00:46:24.794Z,16.50
2019-05-23T00:48:58.175Z,16.50
2019-05-23T00:51:31.797Z,16.50
2019-05-23T00:54:04.331Z,16.40
2019-05-23T00:56:37.234Z,16.40
2019-05-23T00:59:25.656Z,16.40
2019-05-23T01:01:44.038Z,16.30
2019-05-23T01:04:16.922Z,16.30
2019-05-23T01:06:49.420Z,16.30
2019-05-23T01:09:22.915Z,16.30
2019-05-23T01:11:55.389Z,16.30
2019-05-23T01:14:28.796Z,16.30
2019-05-23T01:17:01.939Z,16.30
2019-05-23T01:19:34.356Z,16.30
2019-05-23T01:22:10.080Z,16.30
2019-05-23T01:24:45.215Z,16.30
2019-05-23T01:27:18.691Z,16.30
2019-05-23T01:29:52.692Z,16.30
2019-05-23T01:32:46.322Z,16.30
2019-05-23T01:35:20.212Z,16.20
2019-05-23T01:37:52.677Z,16.20
2019-05-23T01:40:25.688Z,16.10
2019-05-23T01:42:58.473Z,16.10
2019-05-23T01:45:32.290Z,16.10
2019-05-23T01:48:06.054Z,16.10
2019-05-23T01:50:38.658Z,16.10
2019-05-23T01:53:11.734Z,16.00
2019-05-23T01:55:44.527Z,16.00
2019-05-23T01:58:17.636Z,16.00
2019-05-23T02:00:50.335Z,16.00
2019-05-23T02:03:23.282Z,15.90
2019-05-23T02:05:55.762Z,15.90
2019-05-23T02:08:29.038Z,15.90
2019-05-23T02:11:02.145Z,15.90
2019-05-23T02:13:35.147Z,15.90
2019-05-23T02:16:08.165Z,15.90
2019-05-23T02:18:40.996Z,15.90
2019-05-23T02:21:15.035Z,15.90
2019-05-23T02:23:47.500Z,15.90
2019-05-23T02:26:23.162Z,15.80
2019-05-23T02:28:56.129Z,15.80
2019-05-23T02:31:28.782Z,15.70
2019-05-23T02:34:02.006Z,15.70
2019-05-23T02:36:34.592Z,15.70
2019-05-23T02:39:36.604Z,15.70
2019-05-23T02:42:31.044Z,15.70
2019-05-23T02:45:05.572Z,15.80
2019-05-23T02:47:42.101Z,15.80
2019-05-23T02:50:27.518Z,15.80
2019-05-23T02:53:18.052Z,15.80
2019-05-23T02:56:14.406Z,15.80
2019-05-23T02:59:44.108Z,15.80
2019-05-23T03:03:02.588Z,15.70
2019-05-23T03:05:37.390Z,15.70
2019-05-23T03:08:12.622Z,15.70
2019-05-23T03:10:57.053Z,15.70
2019-05-23T03:13:32.623Z,15.70
2019-05-23T03:16:05.992Z,15.70
2019-05-23T03:18:45.974Z,15.60
2019-05-23T03:21:19.757Z,15.60
2019-05-23T03:23:52.186Z,15.70
2019-05-23T03:26:58.232Z,15.70
2019-05-23T03:29:33.506Z,15.70
2019-05-23T03:32:23.722Z,15.60
2019-05-23T03:35:10.444Z,15.60
2019-05-23T03:37:43.094Z,15.60
2019-05-23T03:40:15.490Z,15.50
2019-05-23T03:42:48.207Z,15.50
2019-05-23T03:45:24.049Z,15.50
2019-05-23T03:47:57.388Z,15.50
2019-05-23T03:50:29.798Z,15.50
2019-05-23T03:53:03.235Z,15.50
2019-05-23T03:55:36.204Z,15.50
2019-05-23T03:58:10.381Z,15.50
2019-05-23T04:00:47.286Z,15.50
2019-05-23T04:03:20.788Z,15.50
2019-05-23T04:05:53.649Z,15.50
2019-05-23T04:08:26.982Z,15.50
2019-05-23T04:11:00.561Z,15.50
2019-05-23T04:13:34.065Z,15.60
2019-05-23T04:16:06.583Z,15.60
2019-05-23T04:18:39.078Z,15.60
2019-05-23T04:21:11.488Z,15.60
2019-05-23T04:23:44.191Z,15.60
2019-05-23T04:26:16.640Z,15.60
2019-05-23T04:28:49.154Z,15.60
2019-05-23T04:31:21.805Z,15.60
2019-05-23T04:33:54.224Z,15.60
2019-05-23T04:36:26.613Z,15.60
2019-05-23T04:38:59.422Z,15.50
2019-05-23T04:41:31.895Z,15.50
2019-05-23T04:44:06.298Z,15.60
2019-05-23T04:46:39.038Z,15.60
2019-05-23T04:49:11.575Z,15.60
2019-05-23T04:51:44.741Z,15.60
2019-05-23T04:54:17.158Z,15.60
2019-05-23T04:56:50.683Z,15.60
2019-05-23T04:59:24.050Z,15.70
2019-05-23T05:01:56.733Z,15.70
2019-05-23T05:04:29.156Z,15.70
2019-05-23T05:07:01.618Z,15.80
2019-05-23T05:09:34.059Z,15.90
2019-05-23T05:12:06.579Z,15.90
2019-05-23T05:14:39.370Z,16.00
2019-05-23T05:17:13.769Z,16.00
2019-05-23T05:19:48.662Z,16.10
2019-05-23T05:22:22.523Z,16.20
2019-05-23T05:24:54.971Z,16.20
2019-05-23T05:27:27.368Z,16.30
2019-05-23T05:29:59.802Z,16.40
2019-05-23T05:32:44.224Z,16.40
2019-05-23T05:35:07.341Z,16.50
2019-05-23T05:37:39.729Z,16.60
2019-05-23T05:40:13.033Z,16.60
2019-05-23T05:42:46.017Z,16.70
2019-05-23T05:45:18.634Z,16.70
2019-05-23T05:47:51.127Z,16.70
2019-05-23T05:50:24.653Z,16.70
2019-05-23T05:52:57.101Z,16.80
2019-05-23T05:55:29.527Z,16.80
2019-05-23T05:58:01.860Z,16.80
2019-05-23T06:00:52.142Z,16.90
2019-05-23T06:03:24.924Z,16.90
2019-05-23T06:06:04.598Z,16.90
2019-05-23T06:08:38.103Z,17.00
2019-05-23T06:11:12.530Z,17.00
2019-05-23T06:13:45.262Z,17.00
2019-05-23T06:16:18.313Z,17.10
2019-05-23T06:18:51.405Z,17.10
2019-05-23T06:21:26.479Z,17.20
2019-05-23T06:23:58.980Z,17.30
2019-05-23T06:26:31.420Z,17.30
2019-05-23T06:29:04.287Z,17.40
2019-05-23T06:31:36.822Z,17.50
2019-05-23T06:34:09.246Z,17.60
2019-05-23T06:36:42.377Z,17.60
2019-05-23T06:39:16.558Z,17.70
2019-05-23T06:41:49.876Z,17.80
2019-05-23T06:44:22.457Z,17.90
2019-05-23T06:46:55.277Z,17.90
2019-05-23T06:49:27.706Z,18.00
2019-05-23T06:52:00.128Z,18.10
2019-05-23T06:54:32.537Z,18.10
2019-05-23T06:57:04.986Z,18.30
2019-05-23T06:59:37.383Z,18.30
2019-05-23T07:02:09.849Z,18.40
2019-05-23T07:04:42.333Z,18.40
2019-05-23T07:07:14.759Z,18.50
2019-05-23T07:09:47.924Z,18.60
2019-05-23T07:12:20.427Z,18.60
2019-05-23T07:14:52.825Z,18.70
2019-05-23T07:17:26.044Z,18.80
2019-05-23T07:19:58.456Z,18.80
2019-05-23T07:22:30.949Z,19.00
2019-05-23T07:25:03.430Z,19.00
2019-05-23T07:27:35.962Z,19.10
2019-05-23T07:30:11.652Z,19.20
2019-05-23T07:32:44.148Z,19.30
2019-05-23T07:35:16.560Z,19.40
2019-05-23T07:37:49.034Z,19.50
2019-05-23T07:40:21.536Z,19.60
2019-05-23T07:42:54.049Z,19.60
2019-05-23T07:45:39.740Z,19.70
2019-05-23T07:48:10.530Z,19.80
2019-05-23T07:50:43.203Z,19.90
2019-05-23T07:53:21.021Z,20.00
2019-05-23T07:55:54.343Z,20.10
2019-05-23T07:58:26.814Z,20.20
2019-05-23T08:01:01.110Z,20.30
2019-05-23T08:03:35.109Z,20.40
2019-05-23T08:06:07.805Z,20.50
2019-05-23T08:08:40.415Z,20.60
2019-05-23T08:11:13.174Z,20.70
2019-05-23T08:13:46.354Z,20.80
2019-05-23T08:16:18.773Z,20.90
2019-05-23T08:18:51.491Z,21.00
2019-05-23T08:21:23.900Z,21.10
2019-05-23T08:23:56.335Z,21.20
2019-05-23T08:26:30.945Z,21.30
2019-05-23T08:29:24.901Z,21.40
2019-05-23T08:31:38.819Z,21.50
2019-05-23T08:34:11.603Z,21.70
2019-05-23T08:36:44.578Z,21.70
2019-05-23T08:39:17.108Z,21.90
2019-05-23T08:41:50.165Z,22.00
2019-05-23T08:44:22.975Z,22.10
2019-05-23T08:46:55.878Z,22.20
2019-05-23T08:49:28.289Z,22.40
2019-05-23T08:52:00.705Z,22.60
2019-05-23T08:54:33.234Z,22.80
2019-05-23T08:57:06.964Z,23.10
2019-05-23T08:59:39.773Z,23.50
2019-05-23T09:02:13.343Z,23.90
2019-05-23T09:05:03.700Z,24.20
2019-05-23T09:07:21.129Z,24.60
2019-05-23T09:09:54.758Z,24.90
2019-05-23T09:12:28.312Z,25.10
2019-05-23T09:15:00.749Z,25.40
2019-05-23T09:17:51.077Z,25.60
2019-05-23T09:20:08.018Z,25.80
2019-05-23T09:22:40.468Z,26.10
2019-05-23T09:25:14.505Z,26.30
2019-05-23T09:27:47.611Z,26.50
2019-05-23T09:30:20.515Z,26.70
2019-05-23T09:32:53.105Z,26.90
2019-05-23T09:35:26.029Z,27.10
2019-05-23T09:37:58.464Z,27.30
2019-05-23T09:40:31.276Z,27.50
2019-05-23T09:43:04.917Z,27.60
2019-05-23T09:45:37.313Z,27.80
2019-05-23T09:48:09.559Z,28.00
2019-05-23T09:50:42.068Z,28.30
2019-05-23T09:53:14.619Z,28.70
2019-05-23T09:55:46.971Z,28.90
2019-05-23T09:58:19.346Z,29.20
2019-05-23T10:00:52.105Z,29.50
2019-05-23T10:03:24.763Z,29.60
2019-05-23T10:05:57.245Z,29.70
2019-05-23T10:08:29.620Z,29.60
2019-05-23T10:11:02.056Z,29.50
2019-05-23T10:13:38.996Z,29.30
2019-05-23T10:16:10.222Z,29.10
2019-05-23T10:18:45.005Z,29.00
2019-05-23T10:21:17.273Z,29.10
2019-05-23T10:23:49.621Z,29.30
2019-05-23T10:26:22.145Z,29.40
2019-05-23T10:28:54.446Z,29.50
2019-05-23T10:31:26.843Z,29.40
2019-05-23T10:33:59.152Z,29.30
2019-05-23T10:36:31.561Z,29.10
2019-05-23T10:39:04.681Z,28.90
2019-05-23T10:41:37.108Z,28.50
2019-05-23T10:44:09.469Z,28.20
2019-05-23T10:46:42.013Z,28.00
2019-05-23T10:49:14.466Z,27.70
2019-05-23T10:51:46.888Z,27.50
2019-05-23T10:54:19.369Z,27.20
2019-05-23T10:56:51.893Z,27.10
2019-05-23T10:59:24.146Z,26.90
2019-05-23T11:01:56.531Z,26.70
2019-05-23T11:04:28.870Z,26.50
2019-05-23T11:07:01.213Z,26.40
2019-05-23T11:09:37.858Z,26.20
2019-05-23T11:12:08.801Z,26.10
2019-05-23T11:14:41.390Z,26.00
2019-05-23T11:17:14.082Z,25.80
2019-05-23T11:19:46.430Z,25.80
2019-05-23T11:22:18.817Z,25.70
2019-05-23T11:24:51.307Z,25.60
2019-05-23T11:27:24.020Z,25.50
2019-05-23T11:29:56.472Z,25.40
2019-05-23T11:32:28.964Z,25.30
2019-05-23T11:35:01.311Z,25.20
2019-05-23T11:37:35.072Z,25.20
2019-05-23T11:40:07.701Z,25.10
2019-05-23T11:42:40.000Z,25.00
2019-05-23T11:45:12.424Z,25.00
2019-05-23T11:47:44.792Z,24.90
2019-05-23T11:50:17.185Z,24.80
2019-05-23T11:52:49.560Z,24.80
2019-05-23T11:55:22.225Z,24.70
2019-05-23T11:57:54.705Z,24.70
2019-05-23T12:01:27.998Z,24.60
2019-05-23T12:04:08.431Z,24.60
2019-05-23T12:07:08.578Z,24.60
2019-05-23T12:09:41.111Z,24.50
2019-05-23T12:12:13.411Z,24.40
2019-05-23T12:14:45.745Z,24.40
2019-05-23T12:17:19.535Z,24.30
2019-05-23T12:19:51.982Z,24.40
2019-05-23T12:22:25.514Z,24.30
2019-05-23T12:24:57.978Z,24.30
2019-05-23T12:27:30.305Z,24.30
2019-05-23T12:30:04.201Z,24.30
2019-05-23T12:32:36.596Z,24.20
2019-05-23T12:35:12.278Z,24.20
2019-05-23T12:37:44.793Z,24.20
2019-05-23T12:40:17.447Z,24.20
2019-05-23T12:42:49.906Z,24.20
2019-05-23T12:45:22.329Z,24.20
2019-05-23T12:47:59.496Z,24.20
2019-05-23T12:50:37.408Z,24.20
2019-05-23T12:53:11.212Z,24.20
2019-05-23T12:55:43.632Z,24.20
2019-05-23T12:58:16.109Z,24.20
2019-05-23T13:00:52.630Z,24.20
2019-05-23T13:03:25.003Z,24.20
2019-05-23T13:05:57.501Z,24.20
2019-05-23T13:08:31.046Z,24.20
2019-05-23T13:11:03.458Z,24.20
2019-05-23T13:13:35.759Z,24.10
2019-05-23T13:16:08.162Z,24.10
2019-05-23T13:18:40.472Z,24.10
2019-05-23T13:21:12.843Z,24.10
2019-05-23T13:23:45.296Z,24.10
2019-05-23T13:26:17.719Z,24.10
2019-05-23T13:28:50.081Z,24.10
2019-05-23T13:31:22.485Z,24.10
2019-05-23T13:33:54.783Z,24.00
2019-05-23T13:36:27.101Z,24.00
2019-05-23T13:38:59.580Z,24.00
2019-05-23T13:41:32.126Z,24.00
2019-05-23T13:44:04.538Z,24.00
2019-05-23T13:46:37.521Z,24.00
2019-05-23T13:49:09.941Z,24.00
2019-05-23T13:51:43.622Z,24.00
2019-05-23T13:54:15.906Z,24.00
2019-05-23T13:56:49.109Z,23.90
2019-05-23T13:59:21.482Z,23.90
2019-05-23T14:01:54.190Z,23.90
2019-05-23T14:04:27.050Z,23.90
2019-05-23T14:07:00.525Z,23.90
2019-05-23T14:09:32.982Z,23.90
2019-05-23T14:12:20.466Z,23.90
2019-05-23T14:14:39.756Z,23.90
2019-05-23T14:17:33.843Z,23.90
2019-05-23T14:20:06.808Z,23.90
2019-05-23T14:22:43.277Z,24.00
2019-05-23T14:25:15.625Z,24.00
2019-05-23T14:28:06.535Z,24.00
2019-05-23T14:31:09.975Z,24.00
2019-05-23T14:33:46.758Z,24.00
2019-05-23T14:36:56.220Z,23.90
2019-05-23T14:39:42.004Z,23.90
2019-05-23T14:42:36.156Z,23.90
2019-05-23T14:45:19.410Z,23.90
2019-05-23T14:48:01.696Z,23.90
2019-05-23T14:50:52.917Z,23.90
2019-05-23T14:53:27.278Z,23.90
2019-05-23T14:55:59.574Z,23.90
2019-05-23T14:58:32.400Z,23.90
2019-05-23T15:01:06.412Z,23.90
2019-05-23T15:03:39.269Z,23.90
2019-05-23T15:06:11.684Z,23.90
2019-05-23T15:08:51.169Z,23.90
2019-05-23T15:11:18.199Z,23.90
2019-05-23T15:13:50.644Z,23.80
2019-05-23T15:16:22.936Z,23.80
2019-05-23T15:18:55.198Z,23.80
2019-05-23T15:21:27.574Z,23.80
2019-05-23T15:24:00.950Z,23.80
2019-05-23T15:26:33.432Z,23.80
2019-05-23T15:29:05.766Z,23.80
2019-05-23T15:31:38.068Z,23.80
2019-05-23T15:34:10.308Z,23.80
2019-05-23T15:36:42.845Z,23.70
2019-05-23T15:39:15.220Z,23.70
2019-05-23T15:41:48.118Z,23.70
2019-05-23T15:44:26.715Z,23.70
2019-05-23T15:46:54.601Z,23.70
2019-05-23T15:49:27.446Z,23.70
2019-05-23T15:52:18.693Z,23.70
2019-05-23T15:55:04.225Z,23.60
2019-05-23T15:58:07.165Z,23.60
2019-05-23T16:00:55.258Z,23.60
2019-05-23T16:03:37.242Z,23.60
2019-05-23T16:06:11.158Z,23.50
2019-05-23T16:08:43.830Z,23.50
2019-05-23T16:11:17.605Z,23.50
2019-05-23T16:13:50.234Z,23.40
2019-05-23T16:16:22.869Z,23.40
2019-05-23T16:18:55.232Z,23.40
2019-05-23T16:21:27.495Z,23.40
2019-05-23T16:24:01.811Z,23.40
2019-05-23T16:26:34.317Z,23.40
2019-05-23T16:29:07.029Z,23.30
2019-05-23T16:31:39.839Z,23.30
2019-05-23T16:34:12.211Z,23.30
2019-05-23T16:36:44.623Z,23.30
2019-05-23T16:39:17.424Z,23.30
2019-05-23T16:41:49.829Z,23.30
2019-05-23T16:44:22.216Z,23.20
2019-05-23T16:46:54.539Z,23.20
2019-05-23T16:49:26.953Z,23.20
2019-05-23T16:51:59.283Z,23.20
2019-05-23T16:54:36.529Z,23.20
2019-05-23T16:57:37.150Z,23.10
2019-05-23T17:00:42.586Z,23.20
2019-05-23T17:03:45.832Z,23.10
2019-05-23T17:06:24.483Z,23.10
2019-05-23T17:09:14.428Z,23.00
2019-05-23T17:12:02.201Z,23.00
2019-05-23T17:14:41.022Z,23.00
2019-05-23T17:17:56.954Z,22.90
2019-05-23T17:20:20.332Z,22.90
2019-05-23T17:22:59.399Z,22.90
2019-05-23T17:25:50.721Z,22.90
2019-05-23T17:28:38.073Z,22.90
2019-05-23T17:31:13.114Z,22.90
2019-05-23T17:33:45.575Z,22.90
2019-05-23T17:36:19.527Z,22.90
2019-05-23T17:38:52.939Z,22.90
2019-05-23T17:41:25.317Z,22.80
2019-05-23T17:43:57.659Z,22.80
2019-05-23T17:46:30.409Z,22.90
2019-05-23T17:49:02.807Z,22.90
2019-05-23T17:51:35.093Z,22.90
2019-05-23T17:54:07.553Z,22.80
2019-05-23T17:56:39.898Z,22.80
2019-05-23T17:59:12.247Z,22.80
2019-05-23T18:01:45.411Z,22.80
2019-05-23T18:04:19.003Z,22.80
2019-05-23T18:06:51.610Z,22.80
2019-05-23T18:09:24.379Z,22.80
2019-05-23T18:11:56.822Z,22.80
2019-05-23T18:14:30.707Z,22.80
2019-05-23T18:17:03.008Z,22.70
2019-05-23T18:19:36.112Z,22.70
2019-05-23T18:22:10.857Z,22.70
2019-05-23T18:24:43.460Z,22.60
2019-05-23T18:27:15.781Z,22.60
2019-05-23T18:29:48.381Z,22.60
2019-05-23T18:32:24.440Z,22.60
2019-05-23T18:34:56.961Z,22.50
2019-05-23T18:37:29.262Z,22.50
2019-05-23T18:40:02.079Z,22.50
2019-05-23T18:42:35.057Z,22.50
2019-05-23T18:45:07.571Z,22.40
2019-05-23T18:47:41.347Z,22.40
2019-05-23T18:50:14.948Z,22.40
2019-05-23T18:52:47.266Z,22.30
2019-05-23T18:55:19.667Z,22.30
2019-05-23T18:57:52.123Z,22.30
2019-05-23T19:01:12.081Z,22.20
2019-05-23T19:03:44.627Z,22.20
2019-05-23T19:06:18.300Z,22.20
2019-05-23T19:08:51.988Z,22.10
2019-05-23T19:11:25.623Z,22.10
2019-05-23T19:13:57.984Z,22.10
2019-05-23T19:16:30.308Z,22.00
2019-05-23T19:19:02.762Z,22.00
2019-05-23T19:21:35.697Z,22.00
2019-05-23T19:24:08.213Z,21.90
2019-05-23T19:26:40.737Z,21.90
2019-05-23T19:29:13.173Z,21.80
2019-05-23T19:31:45.498Z,21.80
2019-05-23T19:34:17.960Z,21.80
2019-05-23T19:36:50.722Z,21.70
2019-05-23T19:39:25.057Z,21.70
2019-05-23T19:41:57.467Z,21.70
2019-05-23T19:44:29.767Z,21.60
2019-05-23T19:47:02.124Z,21.50
2019-05-23T19:49:34.500Z,21.50
2019-05-23T19:52:07.682Z,21.40
2019-05-23T19:54:40.243Z,21.40
2019-05-23T19:57:12.636Z,21.40
2019-05-23T19:59:45.182Z,21.30
2019-05-23T20:02:36.630Z,21.30
2019-05-23T20:05:20.983Z,21.20
2019-05-23T20:07:53.411Z,21.20
2019-05-23T20:10:26.589Z,21.10
2019-05-23T20:12:59.064Z,21.10
2019-05-23T20:15:32.199Z,21.10
2019-05-23T20:18:04.891Z,21.00
2019-05-23T20:20:39.079Z,21.00
2019-05-23T20:23:15.826Z,21.00
2019-05-23T20:25:46.532Z,21.00
2019-05-23T20:28:19.112Z,21.00
2019-05-23T20:30:56.107Z,20.90
2019-05-23T20:33:29.007Z,20.90
2019-05-23T20:36:03.034Z,20.90
2019-05-23T20:38:35.957Z,20.80
2019-05-23T20:41:08.360Z,20.80
2019-05-23T20:43:40.688Z,20.70
2019-05-23T20:46:13.238Z,20.70
2019-05-23T20:48:45.560Z,20.70
2019-05-23T20:51:17.717Z,20.70
2019-05-23T20:53:50.032Z,20.60
2019-05-23T20:56:22.397Z,20.60
2019-05-23T20:58:55.282Z,20.60
2019-05-23T21:01:32.030Z,20.60
2019-05-23T21:04:04.433Z,20.60
2019-05-23T21:06:36.852Z,20.50
2019-05-23T21:09:09.856Z,20.50
2019-05-23T21:11:42.145Z,20.50
2019-05-23T21:14:14.847Z,20.40
2019-05-23T21:16:47.146Z,20.40
2019-05-23T21:19:19.464Z,20.30
2019-05-23T21:21:51.762Z,20.30
2019-05-23T21:24:24.238Z,20.30
2019-05-23T21:26:57.015Z,20.20
2019-05-23T21:29:29.431Z,20.20
2019-05-23T21:32:02.159Z,20.20
2019-05-23T21:34:34.593Z,20.10
2019-05-23T21:37:06.921Z,20.10
2019-05-23T21:39:39.151Z,20.00
2019-05-23T21:42:11.541Z,20.00
2019-05-23T21:44:43.867Z,20.00
2019-05-23T21:47:16.280Z,19.90
2019-05-23T21:49:48.505Z,19.90
2019-05-23T21:52:20.837Z,19.80
2019-05-23T21:54:53.140Z,19.80
2019-05-23T21:57:25.550Z,19.80
2019-05-23T21:59:57.941Z,19.80
2019-05-23T22:02:33.624Z,19.80
2019-05-23T22:05:17.007Z,19.80
2019-05-23T22:07:49.382Z,19.70
2019-05-23T22:10:21.726Z,19.70
2019-05-23T22:13:03.947Z,19.70
2019-05-23T22:15:37.798Z,19.70
2019-05-23T22:18:10.247Z,19.60
2019-05-23T22:20:42.680Z,19.50
2019-05-23T22:23:15.239Z,19.50
2019-05-23T22:25:47.639Z,19.50
2019-05-23T22:28:20.140Z,19.40
2019-05-23T22:30:53.616Z,19.40
2019-05-23T22:33:27.776Z,19.40
2019-05-23T22:36:00.866Z,19.40
2019-05-23T22:38:33.290Z,19.30
2019-05-23T22:41:05.611Z,19.30
2019-05-23T22:43:37.990Z,19.20
2019-05-23T22:46:10.955Z,19.20
2019-05-23T22:48:43.191Z,19.20
2019-05-23T22:51:15.602Z,19.20
2019-05-23T22:53:47.935Z,19.10
2019-05-23T22:56:20.238Z,19.10
2019-05-23T22:58:52.556Z,19.10
2019-05-23T23:01:27.070Z,19.10
2019-05-23T23:03:59.516Z,19.00
2019-05-23T23:06:32.077Z,19.00
2019-05-23T23:09:06.075Z,19.00
2019-05-23T23:11:38.522Z,19.00
2019-05-23T23:14:10.848Z,19.00
2019-05-23T23:16:43.417Z,19.00
2019-05-23T23:19:15.853Z,19.00
2019-05-23T23:21:48.308Z,19.00
2019-05-23T23:24:20.687Z,18.90
2019-05-23T23:26:53.121Z,18.90
2019-05-23T23:29:25.498Z,18.90
2019-05-23T23:31:57.887Z,18.90
2019-05-23T23:34:30.354Z,18.90
2019-05-23T23:37:02.744Z,18.80
2019-05-23T23:39:35.047Z,18.80
2019-05-23T23:42:07.521Z,18.80
2019-05-23T23:44:38.908Z,18.80
2019-05-23T23:47:29.121Z,18.80
2019-05-23T23:50:18.907Z,18.70
2019-05-23T23:53:08.826Z,18.70
2019-05-23T23:55:58.627Z,18.70
2019-05-23T23:58:30.148Z,18.60
